East Fultonham, Ohio
Current Conditions -  °F | °C
As of 4:53 AM on Friday 31 Oct 2014 (Local Time) from KZZV Reporting Station
Overcast Overcast  
Wind Chill: 42°   Ceiling: 4700
Heat Index: 42°   Visibility: 10mi
Dew Point: 37°   Wind: 3mph
Humidity: 82%   Direction: 270°W
Pressure: 29.99"   Gusts: NA
Location:  39.85°N, 82.12°W
Report Text: KZZV 310853Z AUTO 27003KT 10SM OVC047 06/03 A2999 RMK AO2 SLP157 T00560028 56012
Loading
Personal Weather Stations






























Interactive Weather Map
Tropical Storm Tracking
New forecast layout! Learn more

10-Day Weather Forecast

Advertisements
Track Severe Weather on mobile